Time;durP1;ratioP1;P1;durP2;ratioP2;P2;SDS_P1;SDS_P2;PMS_P1;PMS_P2;Temp;Humidity;BMP_temperature;BMP_pressure;BME280_temperature;BME280_humidity;BME280_pressure;Samples;Min_cycle;Max_cycle;Signal;HPM_P1;HPM_P2
2022/04/05 00:00:27;;;;;;;25.55;16.02;;;;;;;3.02;72.54;93197.97;5089864;28;20040;-59
2022/04/05 00:02:52;;;;;;;21.90;15.50;;;;;;;2.97;71.65;93179.66;5089768;28;20116;-59
2022/04/05 00:05:18;;;;;;;21.20;14.27;;;;;;;2.94;72.89;93196.31;5089683;28;20056;-59
2022/04/05 00:07:43;;;;;;;23.55;16.38;;;;;;;3.10;72.86;93181.81;5089957;28;20035;-59
2022/04/05 00:10:09;;;;;;;20.02;14.02;;;;;;;3.05;73.05;93190.78;5089161;28;20462;-57
2022/04/05 00:12:34;;;;;;;22.38;14.60;;;;;;;3.09;72.80;93174.88;5089882;28;20027;-56
2022/04/05 00:15:00;;;;;;;21.02;14.55;;;;;;;3.16;72.21;93198.16;5093727;28;20024;-54
2022/04/05 00:17:26;;;;;;;22.77;14.38;;;;;;;2.97;73.47;93190.56;5093252;28;20485;-54
2022/04/05 00:19:51;;;;;;;24.13;14.70;;;;;;;3.10;72.96;93187.25;5093235;28;20036;-54
2022/04/05 00:22:17;;;;;;;20.40;14.60;;;;;;;3.19;72.44;93186.19;5093401;28;20028;-60
2022/04/05 00:24:42;;;;;;;23.67;15.88;;;;;;;2.96;72.26;93189.09;5093610;28;20020;-59
2022/04/05 00:27:08;;;;;;;21.73;15.93;;;;;;;3.05;72.09;93188.06;5093511;28;20515;-58
2022/04/05 00:29:33;;;;;;;20.77;15.57;;;;;;;3.15;72.00;93193.91;5093448;28;20024;-58
2022/04/05 00:31:58;;;;;;;21.83;13.77;;;;;;;3.15;71.28;93185.75;5093059;28;20032;-58
2022/04/05 00:34:25;;;;;;;24.13;15.32;;;;;;;3.13;71.95;93197.16;5093124;28;20028;-59
2022/04/05 00:36:53;;;;;;;24.17;15.30;;;;;;;3.00;71.80;93186.84;5093292;28;20047;-59
2022/04/05 00:39:19;;;;;;;25.43;14.03;;;;;;;2.96;71.72;93177.44;5093307;28;20028;-54
2022/04/05 00:41:45;;;;;;;17.92;13.38;;;;;;;3.07;71.38;93174.66;5092814;28;20031;-59
2022/04/05 00:44:10;;;;;;;20.10;13.02;;;;;;;3.02;71.56;93178.91;5092758;28;20024;-60
2022/04/05 00:46:36;;;;;;;22.70;13.60;;;;;;;2.86;71.57;93177.00;5092866;28;20024;-59
2022/04/05 00:49:01;;;;;;;19.85;12.85;;;;;;;2.84;71.21;93179.50;5093117;28;20016;-59
2022/04/05 00:51:27;;;;;;;18.75;11.80;;;;;;;2.86;71.14;93179.00;5103771;28;20488;-60
2022/04/05 00:53:55;;;;;;;17.52;12.10;;;;;;;2.85;71.64;93183.72;5113360;27;20030;-59
2022/04/05 00:56:21;;;;;;;18.60;11.77;;;;;;;2.65;71.51;93154.09;5113043;28;20027;-61
2022/04/05 00:58:48;;;;;;;22.45;13.32;;;;;;;2.54;72.45;93169.75;5099146;28;20031;-62
2022/04/05 01:01:18;;;;;;;17.23;10.55;;;;;;;2.39;72.43;93170.09;5091884;28;20058;-64
2022/04/05 01:03:49;;;;;;;13.65;9.05;;;;;;;2.33;72.43;93177.56;5090392;28;20023;-62
2022/04/05 01:06:29;;;;;;;14.00;9.00;;;;;;;2.05;72.75;93150.44;5090816;28;20028;-62
2022/04/05 01:08:55;;;;;;;11.25;8.05;;;;;;;2.32;73.79;93176.06;5093038;28;20019;-62
2022/04/05 01:11:21;;;;;;;11.90;8.73;;;;;;;2.44;72.76;93172.06;5111277;28;20038;-62
2022/04/05 01:13:46;;;;;;;13.68;9.25;;;;;;;2.31;72.92;93174.59;5111151;28;20028;-62
2022/04/05 01:16:12;;;;;;;12.10;9.80;;;;;;;2.21;73.29;93178.81;5110757;28;20591;-62
2022/04/05 01:18:37;;;;;;;10.88;7.47;;;;;;;2.17;73.12;93164.72;5111680;28;20087;-61
2022/04/05 01:21:03;;;;;;;13.07;9.52;;;;;;;2.08;73.37;93168.47;5112645;28;20492;-61
2022/04/05 01:23:29;;;;;;;13.77;9.60;;;;;;;1.91;74.73;93167.81;5112687;28;20031;-61
2022/04/05 01:25:56;;;;;;;12.95;8.75;;;;;;;1.87;75.05;93166.56;5111993;28;20465;-62
2022/04/05 01:28:22;;;;;;;14.02;8.98;;;;;;;1.98;74.16;93152.94;5112492;28;20019;-62
2022/04/05 01:30:48;;;;;;;10.80;8.48;;;;;;;2.18;74.02;93161.53;5112670;28;20452;-61
2022/04/05 01:33:13;;;;;;;17.85;8.43;;;;;;;2.22;73.32;93161.25;5112595;28;20051;-61
2022/04/05 01:35:40;;;;;;;13.02;7.85;;;;;;;2.12;73.13;93149.91;5111059;28;20031;-60
2022/04/05 01:38:10;;;;;;;12.93;7.68;;;;;;;2.08;73.41;93157.59;5112138;28;20046;-61
2022/04/05 01:40:35;;;;;;;12.73;7.57;;;;;;;2.04;73.31;93159.09;5112423;28;20054;-61
2022/04/05 01:43:01;;;;;;;9.95;6.80;;;;;;;1.99;72.95;93154.44;5112452;27;20493;-61
2022/04/05 01:45:26;;;;;;;9.90;6.18;;;;;;;1.94;73.77;93157.91;5112161;28;20059;-61
2022/04/05 01:47:52;;;;;;;9.35;6.85;;;;;;;1.99;73.06;93154.44;5111913;28;20031;-61
2022/04/05 01:50:18;;;;;;;15.13;9.10;;;;;;;2.04;73.25;93157.13;5112062;27;20019;-61
2022/04/05 01:52:43;;;;;;;11.27;8.13;;;;;;;2.02;73.99;93147.97;5112080;28;20030;-61
2022/04/05 01:55:09;;;;;;;12.02;8.77;;;;;;;2.07;73.70;93147.97;5110688;28;20037;-62
2022/04/05 01:57:34;;;;;;;15.32;10.18;;;;;;;1.98;73.58;93147.50;5109829;28;20523;-62
2022/04/05 02:00:01;;;;;;;14.38;9.02;;;;;;;1.97;73.85;93154.19;5091282;28;20035;-61
2022/04/05 02:02:26;;;;;;;12.52;8.95;;;;;;;1.50;75.46;93151.31;5091746;28;20050;-61
2022/04/05 02:04:52;;;;;;;10.38;7.68;;;;;;;1.65;76.22;93147.56;5091407;28;20516;-61
2022/04/05 02:07:18;;;;;;;11.25;8.10;;;;;;;1.59;75.82;93158.47;5091414;28;20417;-61
2022/04/05 02:09:47;;;;;;;12.27;8.05;;;;;;;1.67;75.69;93151.28;5091263;28;20063;-61
2022/04/05 02:12:12;;;;;;;15.48;9.85;;;;;;;1.81;74.23;93144.81;5091405;28;20024;-60
2022/04/05 02:14:38;;;;;;;13.98;9.63;;;;;;;1.91;74.51;93142.56;5091273;28;20066;-61
2022/04/05 02:17:07;;;;;;;15.55;10.25;;;;;;;1.91;73.91;93146.03;5091167;28;20080;-55
2022/04/05 02:19:34;;;;;;;15.25;9.70;;;;;;;1.76;74.40;93144.84;5090877;28;20118;-55
2022/04/05 02:22:00;;;;;;;12.15;7.95;;;;;;;1.61;74.70;93122.59;5091277;28;20028;-56
2022/04/05 02:24:25;;;;;;;12.20;7.70;;;;;;;1.64;74.66;93137.94;5091348;28;20059;-50
2022/04/05 02:26:50;;;;;;;12.10;8.18;;;;;;;1.49;75.24;93141.66;5091116;28;20520;-52
2022/04/05 02:29:16;;;;;;;12.45;7.55;;;;;;;1.61;75.04;93142.41;5091211;28;20461;-51
2022/04/05 02:31:41;;;;;;;12.82;8.43;;;;;;;1.80;74.24;93132.44;5091040;28;20497;-52
2022/04/05 02:34:08;;;;;;;13.27;7.93;;;;;;;1.59;74.16;93128.56;5091149;28;20031;-55
2022/04/05 02:36:34;;;;;;;9.70;6.72;;;;;;;1.59;74.79;93136.72;5090677;28;20533;-56
2022/04/05 02:39:00;;;;;;;11.52;7.15;;;;;;;1.71;74.47;93130.00;5090972;28;20023;-52
2022/04/05 02:41:26;;;;;;;13.48;8.32;;;;;;;1.65;74.79;93131.25;5090754;28;20061;-50
2022/04/05 02:43:51;;;;;;;11.48;7.78;;;;;;;1.28;75.37;93128.84;5100182;28;20035;-55
2022/04/05 02:46:16;;;;;;;13.00;9.05;;;;;;;1.45;76.16;93124.16;5110601;28;20415;-54
2022/04/05 02:48:46;;;;;;;11.23;7.00;;;;;;;1.64;75.87;93130.53;5111006;28;20020;-52
2022/04/05 02:51:15;;;;;;;15.75;10.77;;;;;;;1.58;75.15;93123.63;5110886;28;20556;-49
2022/04/05 02:53:41;;;;;;;29.77;16.10;;;;;;;1.43;74.83;93119.19;5111034;28;20065;-53
2022/04/05 02:56:07;;;;;;;24.88;13.90;;;;;;;1.04;75.64;93094.03;5094378;28;20028;-52
2022/04/05 02:58:34;;;;;;;24.45;14.00;;;;;;;1.15;75.68;93129.38;5090639;28;20020;-56
2022/04/05 03:01:00;;;;;;;15.27;10.32;;;;;;;1.06;75.53;93126.19;5090103;28;20054;-65
2022/04/05 03:03:25;;;;;;;10.07;6.90;;;;;;;1.09;75.84;93117.75;5090754;28;20031;-65
2022/04/05 03:05:51;;;;;;;13.05;8.02;;;;;;;1.10;75.86;93121.97;5090334;28;20398;-63
2022/04/05 03:08:16;;;;;;;12.55;7.32;;;;;;;1.13;75.54;93118.25;5090247;28;20405;-61
2022/04/05 03:10:41;;;;;;;9.32;7.07;;;;;;;1.00;76.08;93117.25;5090610;28;20028;-60
2022/04/05 03:13:07;;;;;;;10.43;7.97;;;;;;;1.15;75.11;93115.78;5090596;28;20413;-58
2022/04/05 03:15:32;;;;;;;9.90;8.38;;;;;;;1.22;74.77;93115.28;5090315;28;20024;-59
2022/04/05 03:17:58;;;;;;;13.70;8.18;;;;;;;1.34;74.01;93114.00;5090007;28;20067;-54
2022/04/05 03:20:24;;;;;;;9.10;6.53;;;;;;;1.27;74.50;93128.13;5090179;28;20031;-51
2022/04/05 03:22:49;;;;;;;11.50;7.32;;;;;;;1.20;75.07;93117.75;5090453;28;20024;-50
2022/04/05 03:25:15;;;;;;;11.63;8.13;;;;;;;1.12;75.30;93080.69;5090375;28;20023;-50
2022/04/05 03:27:41;;;;;;;20.08;10.05;;;;;;;1.28;75.80;93107.84;5090054;28;20485;-49
2022/04/05 03:30:17;;;;;;;14.75;10.07;;;;;;;1.20;75.33;93106.88;5090389;28;20077;-51
2022/04/05 03:32:43;;;;;;;16.27;9.27;;;;;;;1.18;75.80;93103.91;5089867;28;20107;-49
2022/04/05 03:35:08;;;;;;;22.88;9.77;;;;;;;1.22;76.04;93106.38;5089158;28;20543;-51
2022/04/05 03:37:34;;;;;;;13.30;8.52;;;;;;;1.23;75.79;93107.88;5089943;28;20028;-54
2022/04/05 03:40:00;;;;;;;13.32;9.15;;;;;;;1.30;74.82;93108.09;5099264;28;20027;-54
2022/04/05 03:42:26;;;;;;;15.15;8.60;;;;;;;1.23;75.56;93103.19;5110628;28;20499;-55
2022/04/05 03:44:51;;;;;;;14.23;8.25;;;;;;;1.23;75.06;93105.16;5110314;28;20042;-55
2022/04/05 03:47:17;;;;;;;11.73;7.53;;;;;;;1.21;75.06;93104.91;5110601;28;20024;-56
2022/04/05 03:49:43;;;;;;;12.40;7.28;;;;;;;1.16;75.22;93109.09;5114475;28;20468;-53
2022/04/05 03:52:08;;;;;;;8.95;6.75;;;;;;;0.83;75.47;93092.81;5113163;28;20050;-54
2022/04/05 03:54:34;;;;;;;11.95;7.78;;;;;;;0.91;76.27;93106.66;5114298;28;20035;-54
2022/04/05 03:56:59;;;;;;;19.30;11.43;;;;;;;1.04;75.94;93106.91;5114480;28;20416;-53
2022/04/05 03:59:25;;;;;;;11.18;7.90;;;;;;;1.04;75.49;93106.91;5096693;27;20441;-53
2022/04/05 04:01:50;;;;;;;10.80;7.38;;;;;;;1.00;75.18;93104.41;5093439;28;20441;-56
2022/04/05 04:04:15;;;;;;;13.23;7.93;;;;;;;0.85;75.53;93103.19;5093598;28;20024;-58
2022/04/05 04:06:41;;;;;;;12.65;8.10;;;;;;;0.91;74.65;93110.09;5093528;28;20028;-62
2022/04/05 04:09:06;;;;;;;12.45;8.10;;;;;;;0.61;76.34;93109.09;5093668;28;20085;-61
2022/04/05 04:11:32;;;;;;;12.98;9.07;;;;;;;0.87;75.35;93108.88;5093830;28;20035;-63
2022/04/05 04:13:58;;;;;;;12.32;9.25;;;;;;;0.69;75.58;93115.56;5093758;28;20038;-61
2022/04/05 04:16:24;;;;;;;12.35;9.07;;;;;;;0.77;75.55;93111.09;5093451;28;20035;-61
2022/04/05 04:18:49;;;;;;;15.73;11.10;;;;;;;0.81;75.84;93116.28;5093278;28;20108;-62
2022/04/05 04:21:15;;;;;;;16.92;10.65;;;;;;;0.72;75.87;93096.28;5093656;28;20035;-61
2022/04/05 04:23:40;;;;;;;17.10;12.00;;;;;;;0.98;75.46;93109.59;5093305;28;20084;-62
2022/04/05 04:26:06;;;;;;;19.42;12.50;;;;;;;1.06;75.39;93105.16;5093663;28;20039;-60
2022/04/05 04:28:31;;;;;;;18.23;11.23;;;;;;;1.23;74.67;93107.88;5093207;28;20099;-59
2022/04/05 04:30:57;;;;;;;16.58;10.27;;;;;;;1.16;74.93;93114.53;5093373;28;20024;-59
2022/04/05 04:33:23;;;;;;;14.68;8.52;;;;;;;1.14;74.35;93111.59;5093186;28;20592;-59
2022/04/05 04:35:48;;;;;;;16.30;10.00;;;;;;;1.10;73.99;93113.81;5098699;28;20023;-58
2022/04/05 04:38:15;;;;;;;17.73;10.52;;;;;;;1.22;73.43;93112.56;5113382;28;20102;-59
2022/04/05 04:40:44;;;;;;;21.45;12.70;;;;;;;1.03;74.76;93113.56;5113728;28;20034;-55
2022/04/05 04:43:10;;;;;;;18.00;10.65;;;;;;;1.25;74.43;93113.53;5113379;28;20027;-53
2022/04/05 04:45:36;;;;;;;15.90;10.27;;;;;;;1.27;74.29;93119.22;5113573;28;20084;-54
2022/04/05 04:48:01;;;;;;;18.25;9.52;;;;;;;1.29;74.86;93120.22;5113528;28;20031;-57
2022/04/05 04:50:27;;;;;;;27.20;16.30;;;;;;;1.22;75.11;93122.69;5113224;28;20031;-59
2022/04/05 04:52:52;;;;;;;37.38;23.92;;;;;;;1.35;75.18;93126.38;5113336;28;20031;-59
2022/04/05 04:55:18;;;;;;;47.83;26.73;;;;;;;1.46;73.95;93120.91;5113418;28;20469;-61
2022/04/05 04:57:43;;;;;;;36.38;20.42;;;;;;;1.41;74.39;93118.94;5109436;28;20410;-63
2022/04/05 05:00:11;;;;;;;75.82;27.05;;;;;;;1.46;74.51;93120.19;5091527;28;20028;-61
2022/04/05 05:02:50;;;;;;;110.55;38.35;;;;;;;1.58;74.62;93121.66;5092971;28;20028;-61
2022/04/05 05:05:19;;;;;;;130.32;49.47;;;;;;;1.68;74.33;93128.28;5092840;28;20028;-68
2022/04/05 05:07:44;;;;;;;;;;;;;;;1.81;74.47;93128.50;5092970;28;20028;-61
2022/04/05 05:10:14;;;;;;;97.05;35.75;;;;;;;1.89;73.95;93123.25;5092486;28;20397;-59
2022/04/05 05:12:40;;;;;;;81.20;42.20;;;;;;;1.87;73.15;93123.78;5092612;28;20036;-55
2022/04/05 05:15:10;;;;;;;94.90;48.08;;;;;;;2.17;72.57;93121.16;5092525;28;20020;-58
2022/04/05 05:17:36;;;;;;;61.10;34.70;;;;;;;2.25;72.22;93117.41;5100360;28;20041;-56
2022/04/05 05:20:06;;;;;;;62.20;35.50;;;;;;;2.01;72.58;93109.13;5101119;28;20016;-59
2022/04/05 05:22:31;;;;;;;56.13;31.20;;;;;;;2.11;73.31;93129.38;5101056;28;20020;-62
2022/04/05 05:24:57;;;;;;;42.65;23.95;;;;;;;2.14;73.02;93124.91;5102066;28;20413;-59
2022/04/05 05:27:22;;;;;;;38.35;20.15;;;;;;;2.26;72.04;93134.50;5102581;28;20020;-58
2022/04/05 05:29:47;;;;;;;30.17;16.45;;;;;;;2.39;71.50;93131.94;5095473;28;20485;-58
2022/04/05 05:32:13;;;;;;;24.20;15.75;;;;;;;2.14;72.04;93127.63;5098970;28;20412;-60
2022/04/05 05:34:38;;;;;;;34.85;19.88;;;;;;;2.19;72.60;93135.75;5112374;28;20027;-65
2022/04/05 05:37:05;;;;;;;43.75;24.13;;;;;;;2.41;73.06;93136.88;5112590;28;20031;-66
2022/04/05 05:39:31;;;;;;;36.20;20.90;;;;;;;2.50;73.03;93137.34;5112393;28;20666;-64
2022/04/05 05:41:57;;;;;;;39.50;23.13;;;;;;;2.65;71.95;93135.03;5112487;28;20027;-66
2022/04/05 05:44:23;;;;;;;60.90;32.30;;;;;;;2.74;71.18;93133.97;5112030;28;20050;-67
2022/04/05 05:46:49;;;;;;;45.50;25.63;;;;;;;2.89;70.30;93134.38;5112469;28;20036;-65
2022/04/05 05:49:14;;;;;;;80.53;39.22;;;;;;;3.02;70.19;93132.53;5113007;28;20554;-64
2022/04/05 05:51:40;;;;;;;82.38;42.95;;;;;;;3.03;70.09;93139.44;5112321;28;20058;-64
2022/04/05 05:54:06;;;;;;;70.28;37.97;;;;;;;3.22;70.01;93136.84;5112296;28;20081;-52
2022/04/05 05:56:31;;;;;;;64.25;34.63;;;;;;;3.69;69.79;93135.41;5105501;28;20046;-59
2022/04/05 05:58:58;;;;;;;46.40;28.08;;;;;;;4.12;68.71;93134.69;5101104;28;20027;-53
2022/04/05 06:01:23;;;;;;;45.17;23.92;;;;;;;4.58;66.89;93126.91;5111466;28;20048;-59
2022/04/05 06:03:49;;;;;;;83.65;44.78;;;;;;;5.01;65.16;93124.03;5111532;28;20038;-57
2022/04/05 06:06:15;;;;;;;105.18;50.85;;;;;;;5.81;63.80;93126.44;5111721;28;20019;-59
2022/04/05 06:08:40;;;;;;;49.90;28.65;;;;;;;6.99;60.41;93123.56;5111587;28;20019;-58
2022/04/05 06:11:07;;;;;;;38.35;24.50;;;;;;;7.86;56.16;93123.97;5108407;28;20039;-59
2022/04/05 06:13:33;;;;;;;53.92;29.65;;;;;;;8.43;55.20;93119.94;5100088;28;20030;-59
2022/04/05 06:15:59;;;;;;;87.30;41.47;;;;;;;8.52;54.63;93122.19;5101814;28;20036;-59
2022/04/05 06:18:24;;;;;;;54.42;30.05;;;;;;;9.13;53.13;93118.38;5111659;28;20023;-65
2022/04/05 06:20:50;;;;;;;51.75;30.15;;;;;;;10.19;50.37;93112.94;5111639;28;20027;-65
2022/04/05 06:23:15;;;;;;;58.13;36.85;;;;;;;11.28;47.13;93108.66;5111375;28;20055;-61
2022/04/05 06:25:41;;;;;;;47.08;32.85;;;;;;;12.60;44.43;93107.25;5111231;28;20023;-61
2022/04/05 06:28:08;;;;;;;61.13;31.45;;;;;;;13.53;42.00;93102.22;5106433;28;20394;-62
2022/04/05 06:30:36;;;;;;;48.95;31.17;;;;;;;14.85;40.41;93110.78;5090898;28;20477;-61
2022/04/05 06:33:25;;;;;;;43.10;29.10;;;;;;;15.72;37.48;93105.84;5090813;28;20686;-60
2022/04/05 06:35:53;;;;;;;40.08;28.40;;;;;;;16.77;35.32;93101.78;5091521;28;20032;-60
2022/04/05 06:38:19;;;;;;;39.65;24.90;;;;;;;17.52;35.11;93096.91;5092249;28;20058;-58
2022/04/05 06:40:45;;;;;;;22.05;17.92;;;;;;;18.01;32.84;93106.25;5089868;28;20486;-59
2022/04/05 06:43:12;;;;;;;24.90;16.58;;;;;;;17.77;32.92;93107.53;5088982;28;20027;-60
2022/04/05 06:45:38;;;;;;;19.95;15.05;;;;;;;17.54;33.94;93104.69;5088817;28;20088;-60
2022/04/05 06:48:05;;;;;;;14.80;10.55;;;;;;;17.52;32.94;93105.28;5088796;28;20110;-59
2022/04/05 06:50:30;;;;;;;20.15;12.52;;;;;;;17.64;34.18;93096.94;5089363;28;20031;-58
2022/04/05 06:52:58;;;;;;;29.55;20.50;;;;;;;17.85;33.28;93094.06;5088859;28;20028;-56
2022/04/05 06:55:24;;;;;;;29.05;19.98;;;;;;;18.28;33.45;93094.59;5107579;28;20107;-58
2022/04/05 06:57:50;;;;;;;28.17;18.83;;;;;;;18.54;32.15;93088.50;5109812;28;20027;-56
2022/04/05 07:00:22;;;;;;;21.20;14.25;;;;;;;18.70;32.00;93089.47;5110440;28;20489;-61
2022/04/05 07:02:48;;;;;;;19.13;13.85;;;;;;;18.57;31.71;93097.75;5110502;28;20028;-60
2022/04/05 07:05:14;;;;;;;23.83;15.57;;;;;;;18.41;32.57;93085.59;5110787;28;20124;-61
2022/04/05 07:07:40;;;;;;;29.70;16.98;;;;;;;18.30;32.75;93091.91;5110518;28;20508;-62
2022/04/05 07:10:07;;;;;;;20.45;13.02;;;;;;;18.81;31.79;93083.13;5110778;28;20111;-62
2022/04/05 07:12:32;;;;;;;11.77;8.05;;;;;;;19.39;30.50;93085.72;5110831;28;20038;-66
2022/04/05 07:14:58;;;;;;;9.23;4.85;;;;;;;20.05;30.10;93085.09;5110910;28;20027;-66
2022/04/05 07:17:25;;;;;;;4.97;3.65;;;;;;;20.81;28.68;93091.19;5110304;28;20046;-64
2022/04/05 07:19:52;;;;;;;7.47;4.13;;;;;;;21.77;27.00;93073.47;5110655;28;20115;-64
2022/04/05 07:22:17;;;;;;;5.00;3.38;;;;;;;22.30;25.26;93087.88;5109997;28;20487;-66
2022/04/05 07:24:42;;;;;;;6.88;5.53;;;;;;;22.85;25.93;93087.50;5103168;28;20053;-67
2022/04/05 07:27:08;;;;;;;8.63;6.13;;;;;;;24.17;25.00;93088.66;5088547;28;20453;-67
2022/04/05 07:29:34;;;;;;;5.55;4.50;;;;;;;25.01;23.63;93082.56;5089034;28;20457;-67
2022/04/05 07:32:00;;;;;;;4.38;2.17;;;;;;;24.93;21.08;93085.13;5089494;28;20024;-68
2022/04/05 07:34:26;;;;;;;2.55;1.88;;;;;;;24.13;22.06;93086.41;5089689;28;20035;-65
2022/04/05 07:36:51;;;;;;;3.92;2.65;;;;;;;23.04;22.64;93087.59;5089110;28;20103;-66
2022/04/05 07:39:19;;;;;;;9.73;5.07;;;;;;;23.55;25.22;93084.06;5088133;28;20035;-63
2022/04/05 07:41:45;;;;;;;8.85;6.45;;;;;;;23.93;22.54;93086.31;5088151;28;20032;-64
2022/04/05 07:44:10;;;;;;;5.40;4.30;;;;;;;24.69;24.17;93090.59;5088114;28;20121;-64
2022/04/05 07:46:35;;;;;;;4.35;3.40;;;;;;;25.19;22.37;93077.53;5088165;28;20031;-64
2022/04/05 07:49:01;;;;;;;6.05;2.72;;;;;;;25.92;21.19;93078.59;5087563;28;20573;-65
2022/04/05 07:51:27;;;;;;;5.45;4.18;;;;;;;26.45;21.37;93080.91;5087109;28;20028;-65
2022/04/05 07:53:54;;;;;;;6.50;3.90;;;;;;;26.95;20.21;93058.97;5088633;28;20032;-65
2022/04/05 07:56:20;;;;;;;5.72;3.22;;;;;;;26.97;20.28;93073.94;5088724;28;20036;-64
2022/04/05 07:58:45;;;;;;;6.95;6.13;;;;;;;26.62;20.69;93076.41;5101265;28;20035;-65
2022/04/05 08:01:11;;;;;;;6.47;4.80;;;;;;;27.42;20.29;93070.16;5110154;28;20134;-65
2022/04/05 08:03:37;;;;;;;12.88;9.82;;;;;;;27.76;19.81;93058.97;5110353;28;20028;-66
2022/04/05 08:06:03;;;;;;;4.03;3.70;;;;;;;27.94;19.13;93070.72;5109976;28;20516;-65
2022/04/05 08:08:29;;;;;;;6.18;4.05;;;;;;;27.67;19.63;93069.41;5110354;28;20024;-63
2022/04/05 08:10:55;;;;;;;3.85;2.70;;;;;;;27.98;19.32;93068.00;5110147;28;20133;-64
2022/04/05 08:13:21;;;;;;;3.03;2.67;;;;;;;28.14;16.65;93044.97;5110017;28;20513;-65
2022/04/05 08:15:46;;;;;;;4.18;3.03;;;;;;;27.95;18.25;93072.19;5110016;28;20036;-65
2022/04/05 08:18:12;;;;;;;4.53;2.80;;;;;;;28.51;17.89;93064.22;5110025;28;20035;-62
2022/04/05 08:20:41;;;;;;;3.30;2.90;;;;;;;28.50;17.72;93063.50;5110677;28;20100;-64
2022/04/05 08:23:07;;;;;;;7.03;4.28;;;;;;;28.57;18.51;93060.81;5109889;28;20059;-64
2022/04/05 08:25:33;;;;;;;3.97;2.97;;;;;;;29.12;16.81;93066.94;5109894;28;20043;-63
2022/04/05 08:27:58;;;;;;;4.63;3.28;;;;;;;29.33;18.38;93058.78;5110027;28;20027;-64
2022/04/05 08:30:24;;;;;;;3.25;1.90;;;;;;;29.06;14.61;93066.09;5108792;28;20040;-65
2022/04/05 08:32:49;;;;;;;2.25;1.95;;;;;;;28.76;15.27;93051.28;5109773;28;20043;-66
2022/04/05 08:35:17;;;;;;;2.20;2.00;;;;;;;28.88;14.34;93054.38;5113083;28;20092;-66
2022/04/05 08:37:43;;;;;;;1.73;1.63;;;;;;;27.91;14.93;93057.19;5113345;28;20031;-67
2022/04/05 08:40:11;;;;;;;2.35;2.15;;;;;;;27.92;16.71;93053.66;5113473;28;20037;-66
2022/04/05 08:42:39;;;;;;;2.63;2.40;;;;;;;26.99;16.72;93048.47;5113360;28;20497;-62
2022/04/05 08:45:10;;;;;;;2.60;2.40;;;;;;;26.80;17.41;93040.16;5112932;28;20027;-67
2022/04/05 08:47:39;;;;;;;4.38;3.47;;;;;;;25.54;18.36;93038.50;5113140;28;20062;-66
2022/04/05 08:50:05;;;;;;;4.00;2.60;;;;;;;26.55;18.92;93032.34;5112697;28;20088;-65
2022/04/05 08:52:31;;;;;;;4.22;2.67;;;;;;;26.51;19.76;93041.44;5113102;28;20115;-66
2022/04/05 08:54:56;;;;;;;2.05;1.85;;;;;;;27.16;17.15;93031.91;5109485;28;20020;-67
2022/04/05 08:57:22;;;;;;;1.58;1.48;;;;;;;26.98;14.05;93029.31;5110286;28;20145;-66
2022/04/05 08:59:48;;;;;;;3.45;2.00;;;;;;;26.67;16.00;93029.84;5113172;28;20030;-67
2022/04/05 09:02:14;;;;;;;2.88;2.35;;;;;;;27.05;18.09;93022.41;5112848;28;20155;-67
2022/04/05 09:04:40;;;;;;;5.43;3.17;;;;;;;27.53;17.08;93020.81;5112646;28;20020;-66
2022/04/05 09:07:19;;;;;;;2.78;2.45;;;;;;;28.58;16.44;93016.81;5112898;28;20523;-65
2022/04/05 09:09:45;;;;;;;3.83;2.63;;;;;;;28.89;15.50;93011.03;5112686;28;20026;-67
2022/04/05 09:12:17;;;;;;;5.15;2.20;;;;;;;29.24;15.42;93012.41;5112855;28;20059;-67
2022/04/05 09:14:43;;;;;;;3.33;1.95;;;;;;;29.67;14.25;93003.19;5097251;28;20050;-67
2022/04/05 09:17:10;;;;;;;5.18;1.98;;;;;;;30.28;13.16;93010.53;5096887;28;20532;-68
2022/04/05 09:19:48;;;;;;;1.85;1.75;;;;;;;29.71;13.87;93008.97;5104587;28;20039;-68
2022/04/05 09:22:15;;;;;;;2.83;2.00;;;;;;;30.17;14.16;93011.81;5102180;28;20022;-68
2022/04/05 09:24:45;;;;;;;2.20;2.00;;;;;;;30.10;14.25;92995.34;5100323;28;20024;-67
2022/04/05 09:27:10;;;;;;;1.83;1.58;;;;;;;29.98;14.12;93005.13;5101362;28;20012;-67
2022/04/05 09:29:43;;;;;;;2.30;1.88;;;;;;;30.26;13.78;93007.66;5102436;28;20099;-67
2022/04/05 09:32:09;;;;;;;2.25;1.73;;;;;;;29.88;13.75;92987.19;5104337;28;20027;-67
2022/04/05 09:34:49;;;;;;;1.70;1.50;;;;;;;29.33;13.82;93011.16;5100669;28;20028;-67
2022/04/05 09:37:15;;;;;;;1.48;1.38;;;;;;;30.01;13.97;93010.84;5100308;28;20030;-67
2022/04/05 09:39:41;;;;;;;1.70;1.50;;;;;;;29.15;13.12;93005.16;5100052;28;20021;-66
2022/04/05 09:42:08;;;;;;;2.50;1.60;;;;;;;29.10;13.94;93000.78;5101739;28;20019;-68
2022/04/05 09:44:40;;;;;;;2.10;1.40;;;;;;;28.69;12.63;92998.59;5102026;28;20505;-68
2022/04/05 09:47:17;;;;;;;1.63;1.50;;;;;;;29.21;12.83;93002.44;5100376;28;20039;-68
2022/04/05 09:49:45;;;;;;;1.45;1.35;;;;;;;29.09;14.07;92999.34;5099941;28;20024;-69
2022/04/05 09:52:23;;;;;;;2.53;1.55;;;;;;;28.21;14.35;92996.16;5102757;28;20016;-68
2022/04/05 09:54:48;;;;;;;1.10;1.00;;;;;;;28.39;15.70;92985.16;5101385;28;20050;-67
2022/04/05 09:57:14;;;;;;;1.15;1.05;;;;;;;29.08;13.39;92992.22;5099894;28;20026;-68
2022/04/05 09:59:42;;;;;;;3.40;1.40;;;;;;;28.98;13.77;92980.66;5102057;28;20016;-67
2022/04/05 10:02:13;;;;;;;1.10;1.00;;;;;;;29.60;14.42;92986.72;5100883;28;20040;-67
2022/04/05 10:05:12;;;;;;;1.73;1.20;;;;;;;28.06;13.75;92971.72;5104570;28;20095;-67
2022/04/05 10:07:42;;;;;;;2.38;1.70;;;;;;;27.76;14.01;92979.53;5078522;28;20035;-66
2022/04/05 10:10:08;;;;;;;2.15;1.30;;;;;;;26.96;15.16;92972.59;5101170;28;20027;-67
2022/04/05 10:12:35;;;;;;;1.15;1.05;;;;;;;27.98;13.30;92960.16;5100740;28;20047;-67
2022/04/05 10:15:01;;;;;;;1.52;1.10;;;;;;;27.79;15.21;92973.22;5099893;28;20039;-67
2022/04/05 10:17:28;;;;;;;1.35;1.25;;;;;;;28.11;14.73;92964.72;5102360;28;20030;-66
2022/04/05 10:19:56;;;;;;;1.25;1.13;;;;;;;28.52;15.47;92969.81;5102409;28;20093;-67
2022/04/05 10:22:22;;;;;;;1.10;0.95;;;;;;;28.93;15.65;92967.78;5098871;28;20096;-67
2022/04/05 10:24:52;;;;;;;3.58;1.33;;;;;;;28.19;15.42;92962.06;5101527;28;20485;-65
2022/04/05 10:27:19;;;;;;;5.15;1.05;;;;;;;28.57;14.21;92953.59;5098792;28;20024;-65
2022/04/05 10:29:45;;;;;;;1.98;1.00;;;;;;;28.53;14.15;92962.03;5105180;28;20024;-66
2022/04/05 10:32:36;;;;;;;3.45;0.68;;;;;;;28.54;13.41;92955.66;5110054;28;20063;-66
2022/04/05 10:35:07;;;;;;;2.75;1.35;;;;;;;29.00;13.43;92957.97;5111568;28;20031;-66
2022/04/05 10:37:37;;;;;;;2.63;0.80;;;;;;;28.71;12.71;92956.00;5110117;28;20024;-67
2022/04/05 10:40:03;;;;;;;1.80;1.00;;;;;;;28.27;12.65;92947.28;5111201;28;20043;-68
2022/04/05 10:42:36;;;;;;;3.67;0.80;;;;;;;28.47;15.34;92937.06;5111434;28;20394;-68
2022/04/05 10:45:12;;;;;;;1.25;1.15;;;;;;;28.32;14.45;92946.00;5105877;28;20028;-67
2022/04/05 10:48:15;;;;;;;4.18;2.72;;;;;;;28.58;14.35;92946.53;5099881;28;20420;-66
2022/04/05 10:50:42;;;;;;;0.93;0.90;;;;;;;28.48;13.30;92954.81;5089286;28;20429;-64
2022/04/05 10:53:13;;;;;;;2.40;1.85;;;;;;;28.36;14.01;92940.38;5089387;28;20020;-65
2022/04/05 10:56:03;;;;;;;2.47;0.90;;;;;;;28.14;11.63;92937.09;5090070;28;20076;-62
2022/04/05 10:58:38;;;;;;;6.70;2.08;;;;;;;28.17;13.19;92935.75;5098940;28;20027;-57
2022/04/05 11:01:23;;;;;;;1.15;1.00;;;;;;;27.80;15.34;92931.38;5110497;28;20642;-64
2022/04/05 11:04:20;;;;;;;2.05;1.67;;;;;;;27.69;15.58;92938.22;5111045;28;20114;-52
2022/04/05 11:07:01;;;;;;;5.60;1.63;;;;;;;28.12;16.73;92939.88;5112575;28;20024;-67
2022/04/05 11:09:29;;;;;;;1.80;1.38;;;;;;;27.54;16.12;92925.13;5110505;28;20031;-61
2022/04/05 11:11:55;;;;;;;;;;;;;;;27.76;16.34;92926.34;5111284;28;20035;-63
2022/04/05 11:14:47;;;;;;;1.85;1.75;;;;;;;26.97;17.90;92920.91;5110289;28;19973;-61
2022/04/05 11:17:14;;;;;;;3.92;2.50;;;;;;;26.87;16.19;92915.00;5110435;28;20024;-64
2022/04/05 11:19:42;;;;;;;2.85;2.55;;;;;;;27.03;16.16;92897.66;5110298;28;20028;-62
2022/04/05 11:22:20;;;;;;;4.00;2.80;;;;;;;27.20;16.18;92912.97;5110478;28;20062;-64
2022/04/05 11:25:11;;;;;;;2.88;2.30;;;;;;;26.92;16.32;92919.38;5110697;28;20031;-63
2022/04/05 11:27:45;;;;;;;2.03;1.80;;;;;;;26.64;15.91;92906.59;5110317;28;20023;-63
2022/04/05 11:33:09;;;;;;;3.17;2.35;;;;;;;25.84;17.96;92907.88;5110700;28;20040;-62